createdAt,value
2023-01-08T00:05:41.138Z,19.23
2023-01-08T00:13:49.392Z,16.92
2023-01-08T00:21:54.889Z,17.40
2023-01-08T00:30:03.374Z,19.73
2023-01-08T00:38:09.340Z,16.58
2023-01-08T00:46:17.566Z,17.80
2023-01-08T00:54:23.114Z,19.38
2023-01-08T01:02:32.539Z,22.02
2023-01-08T01:10:38.324Z,24.52
2023-01-08T01:18:46.360Z,22.25
2023-01-08T01:26:51.836Z,21.85
2023-01-08T01:35:01.575Z,21.45
2023-01-08T01:43:06.972Z,20.85
2023-01-08T01:51:15.371Z,21.60
2023-01-08T01:59:24.086Z,22.00
2023-01-08T02:07:40.386Z,20.65
2023-01-08T02:15:51.255Z,20.33
2023-01-08T02:24:06.109Z,20.90
2023-01-08T02:32:15.059Z,19.80
2023-01-08T02:40:31.910Z,20.15
2023-01-08T02:48:42.963Z,20.88
2023-01-08T02:56:51.193Z,20.98
2023-01-08T03:05:06.701Z,21.67
2023-01-08T03:13:16.323Z,21.75
2023-01-08T03:21:25.651Z,21.88
2023-01-08T03:29:32.781Z,20.42
2023-01-08T03:37:43.481Z,23.60
2023-01-08T03:45:53.328Z,21.38
2023-01-08T03:54:03.173Z,20.88
2023-01-08T04:02:08.931Z,20.20
2023-01-08T04:10:16.962Z,21.08
2023-01-08T04:18:22.395Z,20.40
2023-01-08T04:26:30.381Z,21.17
2023-01-08T04:34:35.713Z,20.95
2023-01-08T04:42:43.653Z,24.00
2023-01-08T04:50:48.989Z,20.98
2023-01-08T04:58:56.893Z,20.95
2023-01-08T05:07:04.669Z,20.73
2023-01-08T05:15:13.572Z,20.83
2023-01-08T05:23:18.967Z,21.73
2023-01-08T05:31:27.257Z,21.08
2023-01-08T05:39:32.638Z,30.90
2023-01-08T05:47:40.701Z,35.42
2023-01-08T05:55:47.043Z,29.50
2023-01-08T06:03:59.149Z,21.50
2023-01-08T06:12:04.576Z,22.67
2023-01-08T06:20:13.669Z,23.52
2023-01-08T06:28:19.091Z,21.63
2023-01-08T06:36:27.087Z,21.48
2023-01-08T06:44:32.537Z,21.17
2023-01-08T06:52:40.718Z,20.27
2023-01-08T07:00:46.804Z,21.48
2023-01-08T07:08:54.800Z,20.75
2023-01-08T07:17:03.213Z,21.38
2023-01-08T07:25:12.278Z,18.10
2023-01-08T07:33:17.746Z,19.30
2023-01-08T07:41:25.879Z,17.15
2023-01-08T07:49:31.319Z,17.63
2023-01-08T07:57:39.978Z,18.42
2023-01-08T08:05:46.169Z,21.80
2023-01-08T08:13:56.775Z,21.38
2023-01-08T08:22:03.456Z,22.38
2023-01-08T08:30:13.584Z,22.63
2023-01-08T08:38:19.039Z,27.20
2023-01-08T08:46:27.784Z,21.77
2023-01-08T08:54:33.115Z,20.13
2023-01-08T09:02:57.667Z,16.55
2023-01-08T09:11:07.224Z,14.45
2023-01-08T09:19:15.794Z,12.63
2023-01-08T09:27:21.356Z,13.02
2023-01-08T09:35:31.268Z,12.70
2023-01-08T09:43:44.036Z,15.63
2023-01-08T09:51:54.272Z,13.95
2023-01-08T10:00:04.630Z,14.13
2023-01-08T10:08:16.760Z,15.03
2023-01-08T10:16:31.604Z,16.67
2023-01-08T10:24:41.855Z,17.83
2023-01-08T10:32:54.221Z,18.13
2023-01-08T10:41:08.820Z,13.90
2023-01-08T10:49:22.431Z,15.30
2023-01-08T10:57:35.075Z,12.93
2023-01-08T11:05:43.677Z,9.45
2023-01-08T11:14:01.680Z,9.57
2023-01-08T11:22:09.932Z,12.23
2023-01-08T11:30:23.228Z,11.10
2023-01-08T11:38:28.632Z,11.48
2023-01-08T11:46:45.605Z,9.80
2023-01-08T11:55:14.448Z,10.43
2023-01-08T12:03:33.623Z,10.38
2023-01-08T12:11:48.860Z,10.35
2023-01-08T12:20:15.008Z,8.95
2023-01-08T12:28:47.866Z,9.15
2023-01-08T12:37:05.648Z,7.73
2023-01-08T12:45:25.058Z,6.53
2023-01-08T12:53:47.375Z,5.55
2023-01-08T13:02:02.824Z,6.10
2023-01-08T13:10:36.918Z,4.88
2023-01-08T13:26:50.944Z,4.80
2023-01-08T13:35:25.927Z,6.65
2023-01-08T13:43:41.899Z,9.05
2023-01-08T13:51:52.004Z,7.78
2023-01-08T14:00:02.900Z,8.23
2023-01-08T14:08:25.823Z,8.18
2023-01-08T14:16:34.645Z,14.60
2023-01-08T14:24:40.740Z,8.73
2023-01-08T14:32:49.547Z,7.82
2023-01-08T14:41:03.863Z,8.40
2023-01-08T14:49:23.601Z,7.10
2023-01-08T14:57:29.762Z,8.68
2023-01-08T15:05:39.586Z,8.48
2023-01-08T15:13:45.481Z,10.20
2023-01-08T15:21:55.158Z,10.23
2023-01-08T15:30:03.848Z,10.90
2023-01-08T15:38:12.546Z,11.88
2023-01-08T15:46:17.981Z,12.23
2023-01-08T15:54:28.754Z,14.05
2023-01-08T16:02:46.311Z,18.23
2023-01-08T16:10:58.166Z,17.85
2023-01-08T16:19:07.160Z,16.63
2023-01-08T16:27:15.371Z,19.65
2023-01-08T16:35:23.328Z,19.80
2023-01-08T16:43:33.048Z,23.08
2023-01-08T16:51:41.226Z,23.90
2023-01-08T16:59:52.029Z,25.73
2023-01-08T17:07:58.164Z,28.90
2023-01-08T17:16:06.532Z,26.98
2023-01-08T17:24:12.807Z,28.70
2023-01-08T17:32:21.858Z,29.77
2023-01-08T17:40:27.663Z,28.73
2023-01-08T17:48:37.381Z,27.45
2023-01-08T17:56:43.480Z,27.48
2023-01-08T18:04:51.768Z,32.13
2023-01-08T18:22:20.595Z,32.22
2023-01-08T18:41:02.645Z,30.48
2023-01-08T18:49:08.595Z,26.50
2023-01-08T18:57:16.792Z,26.52
2023-01-08T19:05:23.725Z,28.17
2023-01-08T19:13:31.958Z,29.40
2023-01-08T19:21:37.429Z,31.90
2023-01-08T19:29:45.806Z,33.28
2023-01-08T19:37:51.220Z,37.97
2023-01-08T19:45:59.573Z,38.58
2023-01-08T19:54:05.103Z,38.08
2023-01-08T20:02:13.851Z,33.10
2023-01-08T20:10:20.206Z,28.40
2023-01-08T20:18:30.582Z,28.85
2023-01-08T20:26:48.067Z,27.00
2023-01-08T20:34:56.315Z,31.27
2023-01-08T20:43:01.656Z,29.27
2023-01-08T20:51:12.785Z,28.02
2023-01-08T20:59:20.115Z,30.08
2023-01-08T21:07:30.046Z,31.73
2023-01-08T21:15:39.671Z,28.90
2023-01-08T21:23:50.456Z,30.85
2023-01-08T21:31:55.880Z,28.20
2023-01-08T21:40:14.669Z,27.15
2023-01-08T21:48:24.350Z,26.25
2023-01-08T21:56:33.736Z,24.65
2023-01-08T22:04:39.504Z,23.13
2023-01-08T22:12:47.627Z,26.08
2023-01-08T22:21:06.076Z,23.85
2023-01-08T22:29:14.067Z,24.92
2023-01-08T22:37:21.904Z,25.63
2023-01-08T22:45:30.896Z,23.17
2023-01-08T22:53:37.878Z,25.92
2023-01-08T23:01:45.899Z,24.48
2023-01-08T23:09:51.588Z,21.67
2023-01-08T23:17:59.719Z,24.42
2023-01-08T23:26:07.279Z,20.33
2023-01-08T23:34:15.407Z,19.95
2023-01-08T23:42:20.799Z,19.65
2023-01-08T23:50:29.219Z,20.10
2023-01-08T23:58:34.747Z,7.82
